Hlavní strana
METAR-TAF:

METAR-TAF

Letiště :

Tindúf, Alžírsko

zeměpisná šířka: 27-40N, zeměpisná délka: 008-08W, výška: 431 m

Aktuální stav počasí

Zpráva byla vytvořena před 39 minutami, v 06:00 UTC
Západní vítr 12 kt
Teplota 18°C
Vlhkost vzduchu 56%
Tlak 1009 hPa
Viditelnost 10 km a více
Žádná oblačnost pod 1500 m, nevyskytují se cumulonimby.

METAR: DAOF 300600Z 26012KT CAVOK 18/09 Q1009

Čas: 07:39 (06:39 UTC)

Předpověď počasí

Zpráva byla vytvořena před 1 hodinou a 39 minutami, v 05:00 UTC
Předpověď platná od 30 v 06 UTC do 30 v 15 UTC
Západní vítr 18 kt
Viditelnost 10 km a více
Žádná oblačnost pod 1500 m, nevyskytují se cumulonimby.

TAF: DAOF 300500Z 3006/3015 28018KT CAVOK

Stav a předpovědi počasí z více než 4 000 letišť (zprávy METAR a TAF).

Červené a žluté tečky na mapě představují dostupné meteorologické stanice.

Když kurzor umístíte na tečku, zobrazí se název stanice.

Pak kliknutím zobrazíte stav a předpověď počasí.

Chcete-li změnit mapu, kliknutím na zelené tlačítko se znaménkem +mapu přiblížíte, kliknutím na zelené tlačítko se znaménkem – mapu oddálíte a kliknutím na zelené šipky přejdete na sousední mapy.


METAR-TAF: